San Luis Obispo, CA

10:59 PM PST on January 27, 2015 (GMT -0800)
Lawrence Drive, San Luis Obispo | Change Station
CLOSE
Current Station
Personal Weather Station
Location: San Luis Obispo, CA
Elevation: 246 ft
Nearby Weather Stations

Elev 246 ft 35.26 °N, 120.66 °W | Updated 3 seconds ago

Clear
Clear
52.0 °F
Feels Like 52.0 °F
N
1.6
Wind Variable Wind from SE
Gusts 4.5 mph

Today
High -- | Low -- °F
--% Chance of Precip.
Yesterday
High -- | Low -- °F
Precip. -- in
7:05 AM 5:25 PM
First Quarter, 62% visible
Pressure 30.20 in
Visibility 10.0 miles
Clouds Clear
Dew Point 51 °F
Humidity 97%
Rainfall 0.05 in
Snow Depth Not available.
UV 0.0 out of 12
Pollen 2.60 out of 12
Air Quality Not available.
Flu Activity Not available.
METAR KSBP 280556Z AUTO 17004KT 10SM CLR 10/08 A3020 RMK AO2 SLP227 T01000083 10194 20100 50000

More Conditions Fewer Conditions

Pressure 30.20 in
Visibility 10.0 miles
Clouds Clear
Dew Point 51 °F
Humidity 97%
Rainfall 0.05 in
Snow Depth Not available.
UV 0.0 out of 12
Pollen 2.60 out of 12
Air Quality Not available.
Flu Activity Not available.
METAR KSBP 280556Z AUTO 17004KT 10SM CLR 10/08 A3020 RMK AO2 SLP227 T01000083 10194 20100 50000

More Conditions Fewer Conditions

10-Day Weather Forecast

Almanac

Astronomy

Jan. 27, 2015 Rise Set
Actual Time
Civil Twilight
Nautical Twilight
Astronomical Twilight
Moon
Length of Visible Light
Length of Day
Tomorrow will be .
, % of the Moon is Illuminated

Today's Extremes

State Highs State Lows

Community

WunderPhotos

Upload Photos

1,791,114 photos uploaded!

WunderBlogs® & News

Nearby

Air Quality

  Air Quality AQ Index Pollutant
Not available.

Snow Depth

Station Depth Elevation

Earthquake Activity

City Distance Mag. Time & Date
Minimum magnitude displayed is 2.5.

Coastal Water Temperatures

Place Temperature

Nearby Weather Stations